KCDR/CDR METAR and TAF weather

Enter ICAO airport designator
Station Type Date Time Source
KCDR METAR 2021/03/02 16:53 UTC NOAA

KCDR 021653Z AUTO 29014KT 10SM CLR 09/M05 A2998 RMK AO2 SLP173 T00891050


Station Type Date Time Source
KCDR Decoded METAR 2021/03/02 16:53 UTC NOAA

CHADRON MUNICIPAL AIRPORT, NE, United States (KCDR) 42-50N 103-06W 1010M
Mar 02, 2021 - 11:53 AM EST / 2021.03.02 1653 UTC
Wind: from the WNW (290 degrees) at 16 MPH (14 KT):0
Visibility: 10 mile(s):0
Sky conditions: clear
Temperature: 48.0 F (8.9 C)
Dew Point: 23.0 F (-5.0 C)
Relative Humidity: 36%
Pressure (altimeter): 29.98 in. Hg (1015 hPa)
ob: KCDR 021653Z AUTO 29014KT 10SM CLR 09/M05 A2998 RMK AO2 SLP173 T00891050
cycle: 17

Station Type Date Time Source
KCDR TAF 2021/03/02 12:22 UTC NOAA

TAF KCDR 021120Z 0212/0312 24011KT P6SM SKC
FM021800 30007KT P6SM SKC

Example: see airport list